Terminal Aerodrome Forecast
Issued by NWS

Home | Current Version | Previous Version | Text Only | Print | Product List | Glossary On
Versions: 1 2 3 4 5 6 7 8 9 10 11 12 13 14
804
FTUS43 KOAX 131752
TAFBFF
TAF
KBFF 131752Z 1318/1418 23012KT P6SM SCT250
     FM140100 30020G28KT P6SM BKN080
     FM140600 30010KT P6SM BKN120=

USA.gov is the U.S. government's official web portal to all federal, state and local government web resources and services.